createdAt,value
2022-12-01T00:01:21.088Z,6.82
2022-12-01T00:03:47.965Z,7.31
2022-12-01T00:06:19.977Z,7.07
2022-12-01T00:09:07.325Z,7.19
2022-12-01T00:11:35.604Z,7.26
2022-12-01T00:14:02.786Z,6.44
2022-12-01T00:16:30.120Z,7.12
2022-12-01T00:18:57.139Z,7.06
2022-12-01T00:21:25.775Z,7.33
2022-12-01T00:23:55.034Z,7.31
2022-12-01T00:26:23.087Z,6.80
2022-12-01T00:28:54.833Z,7.16
2022-12-01T00:31:21.983Z,7.36
2022-12-01T00:33:49.667Z,7.36
2022-12-01T00:36:16.281Z,7.22
2022-12-01T00:38:43.160Z,7.08
2022-12-01T00:41:09.829Z,7.13
2022-12-01T00:43:36.559Z,7.10
2022-12-01T00:46:03.668Z,7.20
2022-12-01T00:48:32.383Z,7.26
2022-12-01T00:51:00.019Z,7.13
2022-12-01T00:53:26.659Z,7.35
2022-12-01T00:55:56.160Z,7.16
2022-12-01T00:58:23.716Z,7.26
2022-12-01T01:00:58.436Z,7.30
2022-12-01T01:03:26.108Z,7.34
2022-12-01T01:05:52.732Z,7.16
2022-12-01T01:08:19.404Z,7.29
2022-12-01T01:10:47.779Z,7.26
2022-12-01T01:13:15.510Z,7.35
2022-12-01T01:15:42.370Z,7.32
2022-12-01T01:18:11.466Z,7.31
2022-12-01T01:20:38.194Z,7.30
2022-12-01T01:23:04.917Z,7.27
2022-12-01T01:25:32.697Z,7.30
2022-12-01T01:27:59.322Z,7.21
2022-12-01T01:30:26.031Z,7.16
2022-12-01T01:32:52.662Z,7.25
2022-12-01T01:35:19.241Z,7.32
2022-12-01T01:37:45.851Z,7.09
2022-12-01T01:40:12.562Z,7.16
2022-12-01T01:42:39.149Z,7.28
2022-12-01T01:45:29.484Z,7.33
2022-12-01T01:47:58.464Z,7.24
2022-12-01T01:50:28.243Z,7.17
2022-12-01T01:53:02.677Z,6.92
2022-12-01T01:55:33.102Z,7.26
2022-12-01T01:58:00.260Z,7.28
2022-12-01T02:00:27.092Z,7.31
2022-12-01T02:02:54.303Z,7.35
2022-12-01T02:05:25.625Z,7.48
2022-12-01T02:07:55.298Z,7.04
2022-12-01T02:10:33.503Z,7.42
2022-12-01T02:13:06.070Z,7.45
2022-12-01T02:15:51.043Z,7.46
2022-12-01T02:18:22.643Z,7.46
2022-12-01T02:21:27.779Z,7.45
2022-12-01T02:24:23.272Z,7.49
2022-12-01T02:27:02.191Z,7.46
2022-12-01T02:29:48.294Z,7.30
2022-12-01T02:32:30.618Z,7.41
2022-12-01T02:35:20.600Z,7.39
2022-12-01T02:37:51.990Z,7.40
2022-12-01T02:40:25.527Z,7.21
2022-12-01T02:43:32.815Z,7.36
2022-12-01T02:46:10.653Z,7.11
2022-12-01T02:48:41.174Z,6.86
2022-12-01T02:51:13.080Z,7.36
2022-12-01T02:53:39.735Z,7.40
2022-12-01T02:56:10.381Z,7.27
2022-12-01T02:58:37.008Z,7.21
2022-12-01T03:01:10.606Z,7.37
2022-12-01T03:03:59.438Z,7.39
2022-12-01T03:06:37.176Z,7.44
2022-12-01T03:09:41.520Z,7.43
2022-12-01T03:12:15.612Z,7.43
2022-12-01T03:14:58.610Z,7.17
2022-12-01T03:17:30.670Z,7.14
2022-12-01T03:20:12.419Z,7.22
2022-12-01T03:22:48.845Z,6.77
2022-12-01T03:25:17.582Z,7.24
2022-12-01T03:28:06.655Z,7.13
2022-12-01T03:30:39.069Z,7.12
2022-12-01T03:33:10.761Z,7.24
2022-12-01T03:36:03.433Z,7.11
2022-12-01T03:38:31.901Z,7.04
2022-12-01T03:41:02.857Z,7.11
2022-12-01T03:43:34.915Z,6.98
2022-12-01T03:46:23.039Z,7.18
2022-12-01T03:48:52.794Z,7.01
2022-12-01T03:51:30.031Z,7.05
2022-12-01T03:54:07.762Z,7.16
2022-12-01T03:56:46.626Z,7.12
2022-12-01T03:59:15.175Z,7.24
2022-12-01T04:01:41.869Z,7.08
2022-12-01T04:04:13.231Z,6.79
2022-12-01T04:06:44.871Z,7.04
2022-12-01T04:09:11.505Z,7.21
2022-12-01T04:12:16.520Z,7.28
2022-12-01T04:14:43.138Z,7.09
2022-12-01T04:17:09.765Z,7.06
2022-12-01T04:19:37.427Z,7.16
2022-12-01T04:22:04.005Z,7.14
2022-12-01T04:24:30.872Z,7.15
2022-12-01T04:26:57.396Z,7.01
2022-12-01T04:29:23.943Z,7.31
2022-12-01T04:31:51.605Z,7.26
2022-12-01T04:34:18.223Z,7.36
2022-12-01T04:36:45.054Z,7.16
2022-12-01T04:39:11.640Z,7.24
2022-12-01T04:41:38.163Z,7.09
2022-12-01T04:44:04.886Z,7.25
2022-12-01T04:46:31.592Z,7.28
2022-12-01T04:48:58.182Z,7.32
2022-12-01T04:51:24.762Z,7.23
2022-12-01T04:53:51.562Z,6.81
2022-12-01T04:56:18.354Z,7.08
2022-12-01T04:58:45.679Z,7.01
2022-12-01T05:01:14.451Z,6.70
2022-12-01T05:03:43.768Z,6.86
2022-12-01T05:06:16.763Z,6.89
2022-12-01T05:08:44.556Z,7.06
2022-12-01T05:11:12.431Z,7.07
2022-12-01T05:13:40.609Z,7.26
2022-12-01T05:16:12.262Z,7.22
2022-12-01T05:18:39.412Z,7.01
2022-12-01T05:21:08.792Z,6.75
2022-12-01T05:23:36.968Z,6.78
2022-12-01T05:26:06.587Z,7.32
2022-12-01T05:28:33.374Z,7.13
2022-12-01T05:31:00.197Z,7.30
2022-12-01T05:33:27.424Z,7.18
2022-12-01T05:35:54.722Z,6.95
2022-12-01T05:38:21.923Z,7.02
2022-12-01T05:40:53.352Z,6.66
2022-12-01T05:43:26.886Z,6.93
2022-12-01T05:45:56.113Z,7.01
2022-12-01T05:48:22.750Z,7.20
2022-12-01T05:50:49.341Z,7.15
2022-12-01T05:53:15.946Z,6.70
2022-12-01T05:55:43.616Z,7.14
2022-12-01T05:58:10.782Z,6.91
2022-12-01T06:00:45.063Z,6.58
2022-12-01T06:03:12.823Z,7.02
2022-12-01T06:05:39.780Z,7.05
2022-12-01T06:08:06.465Z,7.02
2022-12-01T06:10:33.184Z,7.04
2022-12-01T06:12:59.814Z,6.86
2022-12-01T06:15:26.593Z,6.85
2022-12-01T06:17:53.242Z,6.81
2022-12-01T06:20:19.937Z,6.53
2022-12-01T06:22:46.460Z,6.90
2022-12-01T06:25:14.062Z,6.79
2022-12-01T06:27:40.711Z,6.63
2022-12-01T06:30:08.003Z,6.75
2022-12-01T06:32:34.686Z,6.55
2022-12-01T06:35:01.441Z,6.49
2022-12-01T06:37:28.483Z,6.58
2022-12-01T06:39:55.106Z,5.76
2022-12-01T06:42:21.833Z,6.37
2022-12-01T06:44:48.415Z,6.14
2022-12-01T06:47:15.888Z,6.08
2022-12-01T06:49:42.651Z,6.03
2022-12-01T06:52:11.368Z,6.01
2022-12-01T06:54:37.916Z,6.12
2022-12-01T06:57:04.578Z,6.02
2022-12-01T06:59:31.382Z,5.91
2022-12-01T07:01:58.470Z,5.86
2022-12-01T07:04:25.041Z,5.98
2022-12-01T07:06:51.606Z,5.91
2022-12-01T07:09:19.236Z,5.73
2022-12-01T07:11:46.048Z,5.72
2022-12-01T07:14:23.816Z,5.56
2022-12-01T07:16:50.800Z,5.69
2022-12-01T07:19:17.599Z,5.74
2022-12-01T07:21:44.376Z,5.67
2022-12-01T07:24:12.627Z,5.64
2022-12-01T07:26:41.062Z,5.61
2022-12-01T07:29:09.241Z,5.50
2022-12-01T07:31:36.750Z,5.65
2022-12-01T07:34:04.309Z,5.85
2022-12-01T07:36:32.057Z,5.75
2022-12-01T07:38:58.711Z,5.86
2022-12-01T07:41:25.439Z,6.07
2022-12-01T07:43:52.151Z,5.63
2022-12-01T07:46:23.561Z,6.03
2022-12-01T07:48:51.660Z,6.40
2022-12-01T07:51:18.911Z,6.49
2022-12-01T07:53:46.981Z,5.80
2022-12-01T07:56:14.226Z,6.56
2022-12-01T07:58:41.258Z,6.74
2022-12-01T08:01:19.638Z,6.88
2022-12-01T08:03:48.646Z,7.14
2022-12-01T08:06:16.879Z,6.98
2022-12-01T08:08:44.977Z,6.70
2022-12-01T08:11:24.482Z,7.06
2022-12-01T08:13:52.382Z,6.70
2022-12-01T08:16:22.305Z,7.13
2022-12-01T08:18:49.741Z,7.13
2022-12-01T08:21:18.874Z,6.68
2022-12-01T08:23:46.967Z,7.07
2022-12-01T08:26:18.977Z,7.14
2022-12-01T08:28:46.995Z,7.15
2022-12-01T08:31:26.007Z,7.14
2022-12-01T08:33:53.314Z,7.14
2022-12-01T08:36:21.196Z,6.32
2022-12-01T08:38:52.002Z,7.09
2022-12-01T08:41:19.871Z,7.12
2022-12-01T08:43:58.066Z,7.04
2022-12-01T08:46:26.402Z,6.79
2022-12-01T08:48:55.065Z,6.80
2022-12-01T08:51:21.964Z,6.48
2022-12-01T08:53:50.169Z,6.25
2022-12-01T08:56:24.040Z,6.02
2022-12-01T08:58:51.721Z,6.49
2022-12-01T09:01:20.335Z,6.41
2022-12-01T09:03:47.378Z,5.69
2022-12-01T09:06:16.704Z,6.69
2022-12-01T09:08:43.832Z,5.98
2022-12-01T09:11:13.435Z,6.75
2022-12-01T09:13:40.649Z,6.76
2022-12-01T09:16:13.399Z,6.15
2022-12-01T09:18:40.199Z,6.57
2022-12-01T09:21:30.302Z,6.49
2022-12-01T09:23:57.295Z,6.29
2022-12-01T09:26:26.570Z,6.40
2022-12-01T09:28:55.378Z,6.48
2022-12-01T09:31:23.546Z,6.12
2022-12-01T09:34:01.906Z,6.79
2022-12-01T09:36:30.042Z,6.78
2022-12-01T09:38:56.780Z,7.01
2022-12-01T09:41:31.166Z,7.30
2022-12-01T09:44:15.155Z,7.45
2022-12-01T09:46:46.217Z,7.56
2022-12-01T09:49:19.528Z,7.56
2022-12-01T09:51:46.133Z,7.79
2022-12-01T09:54:14.090Z,7.82
2022-12-01T09:56:50.335Z,8.11
2022-12-01T09:59:22.504Z,8.13
2022-12-01T10:01:54.928Z,7.84
2022-12-01T10:04:36.059Z,8.13
2022-12-01T10:07:31.977Z,8.44
2022-12-01T10:10:03.675Z,8.63
2022-12-01T10:12:33.365Z,7.90
2022-12-01T10:15:27.468Z,8.81
2022-12-01T10:18:20.176Z,8.87
2022-12-01T10:21:03.597Z,8.78
2022-12-01T10:23:55.870Z,8.87
2022-12-01T10:26:34.649Z,8.87
2022-12-01T10:29:11.858Z,8.99
2022-12-01T10:31:50.527Z,9.04
2022-12-01T10:34:29.665Z,8.93
2022-12-01T10:36:57.929Z,9.06
2022-12-01T10:39:29.940Z,9.09
2022-12-01T10:42:07.056Z,9.07
2022-12-01T10:44:35.098Z,9.21
2022-12-01T10:47:03.130Z,9.17
2022-12-01T10:49:41.047Z,9.28
2022-12-01T10:52:26.497Z,9.27
2022-12-01T10:54:53.025Z,9.22
2022-12-01T10:57:19.833Z,9.29
2022-12-01T10:59:57.247Z,9.06
2022-12-01T11:02:27.623Z,9.19
2022-12-01T11:04:58.214Z,9.21
2022-12-01T11:07:29.675Z,9.27
2022-12-01T11:10:08.151Z,9.14
2022-12-01T11:12:34.804Z,9.37
2022-12-01T11:15:01.924Z,9.49
2022-12-01T11:17:33.997Z,9.54
2022-12-01T11:20:37.026Z,9.47
2022-12-01T11:23:09.710Z,9.39
2022-12-01T11:25:36.863Z,9.24
2022-12-01T11:28:05.012Z,9.33
2022-12-01T11:30:33.614Z,8.81
2022-12-01T11:33:03.199Z,9.53
2022-12-01T11:35:35.136Z,9.26
2022-12-01T11:41:00.506Z,9.81
2022-12-01T11:43:36.160Z,10.03
2022-12-01T11:46:06.641Z,9.96
2022-12-01T11:48:35.308Z,10.05
2022-12-01T11:51:28.754Z,9.47
2022-12-01T11:54:33.980Z,9.87
2022-12-01T11:57:31.710Z,9.88
2022-12-01T11:59:47.500Z,9.79
2022-12-01T12:02:23.869Z,9.88
2022-12-01T12:04:53.335Z,9.87
2022-12-01T12:07:44.381Z,9.83
2022-12-01T12:10:44.724Z,9.84
2022-12-01T12:13:43.509Z,9.86
2022-12-01T12:16:33.470Z,9.63
2022-12-01T12:19:28.945Z,10.20
2022-12-01T12:22:42.350Z,10.39
2022-12-01T12:25:17.694Z,10.37
2022-12-01T12:27:50.708Z,10.40
2022-12-01T12:30:22.285Z,10.50
2022-12-01T12:33:20.366Z,10.30
2022-12-01T12:36:38.869Z,9.84
2022-12-01T12:39:35.055Z,10.15
2022-12-01T12:42:10.813Z,10.31
2022-12-01T12:44:49.561Z,10.17
2022-12-01T12:47:46.139Z,10.14
2022-12-01T12:50:43.695Z,10.10
2022-12-01T12:53:22.779Z,9.98
2022-12-01T12:55:52.702Z,9.96
2022-12-01T12:58:35.333Z,10.15
2022-12-01T13:01:12.344Z,9.51
2022-12-01T13:03:50.983Z,9.91
2022-12-01T13:06:20.425Z,9.83
2022-12-01T13:08:57.256Z,9.42
2022-12-01T13:11:36.803Z,9.61
2022-12-01T13:14:49.870Z,9.52
2022-12-01T13:17:20.936Z,9.44
2022-12-01T13:19:48.404Z,9.32
2022-12-01T13:22:17.946Z,9.02
2022-12-01T13:24:44.707Z,9.52
2022-12-01T13:27:11.222Z,9.48
2022-12-01T13:29:43.825Z,9.43
2022-12-01T13:32:27.189Z,9.07
2022-12-01T13:34:53.961Z,9.11
2022-12-01T13:37:35.698Z,9.32
2022-12-01T13:40:20.273Z,8.79
2022-12-01T13:43:00.274Z,9.12
2022-12-01T13:45:40.004Z,8.70
2022-12-01T13:48:25.966Z,8.85
2022-12-01T13:51:02.190Z,8.69
2022-12-01T13:53:36.516Z,8.91
2022-12-01T13:56:02.940Z,8.90
2022-12-01T13:58:32.724Z,8.82
2022-12-01T14:01:21.477Z,8.81
2022-12-01T14:04:10.760Z,8.66
2022-12-01T14:06:51.438Z,8.21
2022-12-01T14:09:17.896Z,8.73
2022-12-01T14:11:56.997Z,8.62
2022-12-01T14:14:26.995Z,8.64
2022-12-01T14:16:58.424Z,8.56
2022-12-01T14:19:37.107Z,8.58
2022-12-01T14:22:07.760Z,8.55
2022-12-01T14:24:41.475Z,8.48
2022-12-01T14:27:12.233Z,8.50
2022-12-01T14:29:43.008Z,8.43
2022-12-01T14:32:09.452Z,8.46
2022-12-01T14:34:38.208Z,8.29
2022-12-01T14:37:20.575Z,7.54
2022-12-01T14:40:05.510Z,8.32
2022-12-01T14:42:55.399Z,8.08
2022-12-01T14:45:27.689Z,7.74
2022-12-01T14:48:02.287Z,8.09
2022-12-01T14:50:35.017Z,8.23
2022-12-01T14:53:08.893Z,7.68
2022-12-01T14:55:47.268Z,8.13
2022-12-01T14:58:18.358Z,8.15
2022-12-01T15:01:14.317Z,8.14
2022-12-01T15:03:45.070Z,8.05
2022-12-01T15:06:20.670Z,8.02
2022-12-01T15:09:31.461Z,8.10
2022-12-01T15:11:57.465Z,8.01
2022-12-01T15:14:34.180Z,7.61
2022-12-01T15:17:03.307Z,7.60
2022-12-01T15:19:33.289Z,7.60
2022-12-01T15:22:04.867Z,7.45
2022-12-01T15:24:33.869Z,8.01
2022-12-01T15:27:03.809Z,7.83
2022-12-01T15:29:46.779Z,7.81
2022-12-01T15:32:16.738Z,7.95
2022-12-01T15:34:46.493Z,7.97
2022-12-01T15:37:19.219Z,7.95
2022-12-01T15:39:49.048Z,7.88
2022-12-01T15:42:26.040Z,7.88
2022-12-01T15:45:04.328Z,7.92
2022-12-01T15:47:45.967Z,7.90
2022-12-01T15:50:31.246Z,7.89
2022-12-01T15:53:00.423Z,7.73
2022-12-01T15:55:35.642Z,7.79
2022-12-01T15:58:06.966Z,7.81
2022-12-01T16:00:33.738Z,7.78
2022-12-01T16:03:02.136Z,7.72
2022-12-01T16:05:32.528Z,7.71
2022-12-01T16:08:14.279Z,7.76
2022-12-01T16:10:40.922Z,7.65
2022-12-01T16:13:47.453Z,7.69
2022-12-01T16:16:38.094Z,7.65
2022-12-01T16:19:24.356Z,7.61
2022-12-01T16:22:03.153Z,7.53
2022-12-01T16:24:33.087Z,7.03
2022-12-01T16:27:05.795Z,6.97
2022-12-01T16:29:57.803Z,7.23
2022-12-01T16:32:35.970Z,7.28
2022-12-01T16:35:04.234Z,7.29
2022-12-01T16:37:31.337Z,7.17
2022-12-01T16:39:58.546Z,7.17
2022-12-01T16:42:25.082Z,7.27
2022-12-01T16:44:52.351Z,6.80
2022-12-01T16:47:21.962Z,7.18
2022-12-01T16:49:48.721Z,7.16
2022-12-01T16:52:43.146Z,6.84
2022-12-01T16:55:02.309Z,7.28
2022-12-01T16:57:28.806Z,7.28
2022-12-01T16:59:55.316Z,7.13
2022-12-01T17:02:21.882Z,7.24
2022-12-01T17:04:48.728Z,6.56
2022-12-01T17:07:15.440Z,7.24
2022-12-01T17:09:41.927Z,7.10
2022-12-01T17:12:08.441Z,7.11
2022-12-01T17:14:35.820Z,7.15
2022-12-01T17:17:03.634Z,7.19
2022-12-01T17:19:30.134Z,7.11
2022-12-01T17:21:57.011Z,7.15
2022-12-01T17:24:23.842Z,6.87
2022-12-01T17:26:50.372Z,7.00
2022-12-01T17:29:16.885Z,6.99
2022-12-01T17:31:43.398Z,7.14
2022-12-01T17:34:09.912Z,7.15
2022-12-01T17:36:36.624Z,7.14
2022-12-01T17:39:03.230Z,6.92
2022-12-01T17:41:35.652Z,6.68
2022-12-01T17:44:05.797Z,7.04
2022-12-01T17:46:32.399Z,7.13
2022-12-01T17:49:00.585Z,7.16
2022-12-01T17:51:27.098Z,7.14
2022-12-01T17:53:54.195Z,6.50
2022-12-01T17:56:20.843Z,7.09
2022-12-01T17:58:50.411Z,6.44
2022-12-01T18:01:19.679Z,6.63
2022-12-01T18:03:47.398Z,7.09
2022-12-01T18:06:14.854Z,7.08
2022-12-01T18:08:42.631Z,6.61
2022-12-01T18:11:12.114Z,7.08
2022-12-01T18:13:40.834Z,7.04
2022-12-01T18:16:27.950Z,6.64
2022-12-01T18:18:55.104Z,7.07
2022-12-01T18:21:23.553Z,6.97
2022-12-01T18:23:51.775Z,7.00
2022-12-01T18:26:20.465Z,6.99
2022-12-01T18:28:47.348Z,6.90
2022-12-01T18:31:16.167Z,6.39
2022-12-01T18:33:44.536Z,6.79
2022-12-01T18:36:16.908Z,6.63
2022-12-01T18:38:44.406Z,6.65
2022-12-01T18:41:10.962Z,7.02
2022-12-01T18:43:37.485Z,6.58
2022-12-01T18:46:05.763Z,7.03
2022-12-01T18:48:33.383Z,6.58
2022-12-01T18:51:07.602Z,7.04
2022-12-01T18:53:34.798Z,6.58
2022-12-01T18:56:03.424Z,6.88
2022-12-01T18:58:30.883Z,7.08
2022-12-01T19:00:58.421Z,7.02
2022-12-01T19:03:25.641Z,6.98
2022-12-01T19:05:52.307Z,7.02
2022-12-01T19:08:19.248Z,7.06
2022-12-01T19:10:45.838Z,6.99
2022-12-01T19:13:12.379Z,7.02
2022-12-01T19:15:38.935Z,7.03
2022-12-01T19:18:05.546Z,7.03
2022-12-01T19:20:32.158Z,6.95
2022-12-01T19:22:58.926Z,7.15
2022-12-01T19:25:25.472Z,7.02
2022-12-01T19:27:53.194Z,7.08
2022-12-01T19:30:19.884Z,7.08
2022-12-01T19:32:46.552Z,6.56
2022-12-01T19:35:13.092Z,6.85
2022-12-01T19:37:39.586Z,6.98
2022-12-01T19:40:06.936Z,6.90
2022-12-01T19:42:33.505Z,6.69
2022-12-01T19:45:01.120Z,6.69
2022-12-01T19:47:31.920Z,6.44
2022-12-01T19:49:58.603Z,6.86
2022-12-01T19:52:25.124Z,6.84
2022-12-01T19:54:52.405Z,6.77
2022-12-01T19:57:19.139Z,6.80
2022-12-01T19:59:45.695Z,6.75
2022-12-01T20:02:12.457Z,6.40
2022-12-01T20:04:40.030Z,6.86
2022-12-01T20:07:07.368Z,6.78
2022-12-01T20:09:33.921Z,6.77
2022-12-01T20:12:00.439Z,6.75
2022-12-01T20:14:27.037Z,6.67
2022-12-01T20:16:55.683Z,6.73
2022-12-01T20:19:22.596Z,6.73
2022-12-01T20:21:49.119Z,6.75
2022-12-01T20:24:19.852Z,6.85
2022-12-01T20:26:50.767Z,6.79
2022-12-01T20:29:23.419Z,6.85
2022-12-01T20:31:50.655Z,6.91
2022-12-01T20:34:21.427Z,6.81
2022-12-01T20:36:48.531Z,6.86
2022-12-01T20:39:15.926Z,6.94
2022-12-01T20:41:43.837Z,6.33
2022-12-01T20:44:11.127Z,6.45
2022-12-01T20:46:40.900Z,6.38
2022-12-01T20:49:08.011Z,6.40
2022-12-01T20:51:35.337Z,6.88
2022-12-01T20:56:54.233Z,6.17
2022-12-01T20:59:20.743Z,6.18
2022-12-01T21:01:47.391Z,6.79
2022-12-01T21:04:13.954Z,6.66
2022-12-01T21:06:42.986Z,6.33
2022-12-01T21:09:09.544Z,6.77
2022-12-01T21:12:05.354Z,6.62
2022-12-01T21:14:41.344Z,6.68
2022-12-01T21:17:22.506Z,5.73
2022-12-01T21:20:01.411Z,6.61
2022-12-01T21:22:28.023Z,6.64
2022-12-01T21:25:03.549Z,6.65
2022-12-01T21:27:30.068Z,6.55
2022-12-01T21:29:56.871Z,6.58
2022-12-01T21:32:30.732Z,6.70
2022-12-01T21:35:05.728Z,6.23
2022-12-01T21:37:32.229Z,6.58
2022-12-01T21:39:59.523Z,6.45
2022-12-01T21:42:29.895Z,6.72
2022-12-01T21:44:56.882Z,6.26
2022-12-01T21:47:26.258Z,6.73
2022-12-01T21:49:55.619Z,6.23
2022-12-01T21:52:27.216Z,6.67
2022-12-01T21:54:54.598Z,6.62
2022-12-01T21:57:43.139Z,6.75
2022-12-01T22:00:31.599Z,6.76
2022-12-01T22:03:13.386Z,6.72
2022-12-01T22:05:56.169Z,6.69
2022-12-01T22:08:40.358Z,6.73
2022-12-01T22:11:15.858Z,6.67
2022-12-01T22:14:01.188Z,6.72
2022-12-01T22:16:37.974Z,6.19
2022-12-01T22:19:16.777Z,6.67
2022-12-01T22:22:00.324Z,5.94
2022-12-01T22:24:32.889Z,6.43
2022-12-01T22:27:05.324Z,6.60
2022-12-01T22:29:39.141Z,5.90
2022-12-01T22:32:11.903Z,6.53
2022-12-01T22:34:57.591Z,5.97
2022-12-01T22:37:38.074Z,6.49
2022-12-01T22:40:38.617Z,6.14
2022-12-01T22:43:17.346Z,5.99
2022-12-01T22:45:48.113Z,6.44
2022-12-01T22:48:33.071Z,6.45
2022-12-01T22:51:14.759Z,5.97
2022-12-01T22:53:42.262Z,5.88
2022-12-01T22:56:29.389Z,6.35
2022-12-01T22:58:56.331Z,5.85
2022-12-01T23:01:33.595Z,6.33
2022-12-01T23:04:14.196Z,6.22
2022-12-01T23:07:22.896Z,6.24
2022-12-01T23:09:49.523Z,6.24
2022-12-01T23:12:23.500Z,6.26
2022-12-01T23:14:53.376Z,6.03
2022-12-01T23:17:26.748Z,5.64
2022-12-01T23:20:05.606Z,6.18
2022-12-01T23:22:32.087Z,5.61
2022-12-01T23:25:00.481Z,6.17
2022-12-01T23:27:27.011Z,5.97
2022-12-01T23:29:54.085Z,6.17
2022-12-01T23:32:20.663Z,6.14
2022-12-01T23:34:47.402Z,6.13
2022-12-01T23:37:34.223Z,6.09
2022-12-01T23:40:02.396Z,6.06
2022-12-01T23:42:28.971Z,6.02
2022-12-01T23:44:55.544Z,5.35
2022-12-01T23:47:26.607Z,5.79
2022-12-01T23:50:00.566Z,5.97
2022-12-01T23:52:36.261Z,5.90
2022-12-01T23:55:11.492Z,5.84
2022-12-01T23:57:38.111Z,5.47
